sensor_id;sensor_type;location;lat;lon;timestamp;P1;durP1;ratioP1;P2;durP2;ratioP2
58017;SDS011;43810;50.860;19.226;2022-10-22T00:00:47;11.77;;;6.80;;
58017;SDS011;43810;50.860;19.226;2022-10-22T00:03:33;15.75;;;7.13;;
58017;SDS011;43810;50.860;19.226;2022-10-22T00:05:58;16.08;;;7.38;;
58017;SDS011;43810;50.860;19.226;2022-10-22T00:08:24;10.38;;;6.40;;
58017;SDS011;43810;50.860;19.226;2022-10-22T00:10:50;15.57;;;7.20;;
58017;SDS011;43810;50.860;19.226;2022-10-22T00:13:17;13.48;;;6.25;;
58017;SDS011;43810;50.860;19.226;2022-10-22T00:15:43;10.70;;;6.35;;
58017;SDS011;43810;50.860;19.226;2022-10-22T00:18:09;10.55;;;6.50;;
58017;SDS011;43810;50.860;19.226;2022-10-22T00:20:35;13.45;;;7.05;;
58017;SDS011;43810;50.860;19.226;2022-10-22T00:23:00;13.57;;;6.85;;
58017;SDS011;43810;50.860;19.226;2022-10-22T00:25:26;9.80;;;6.32;;
58017;SDS011;43810;50.860;19.226;2022-10-22T00:27:52;17.58;;;7.25;;
58017;SDS011;43810;50.860;19.226;2022-10-22T00:30:18;11.98;;;6.32;;
58017;SDS011;43810;50.860;19.226;2022-10-22T00:32:44;14.70;;;6.30;;
58017;SDS011;43810;50.860;19.226;2022-10-22T00:35:09;12.75;;;6.88;;
58017;SDS011;43810;50.860;19.226;2022-10-22T00:37:36;24.65;;;7.22;;
58017;SDS011;43810;50.860;19.226;2022-10-22T00:40:02;10.60;;;6.50;;
58017;SDS011;43810;50.860;19.226;2022-10-22T00:42:28;13.25;;;7.03;;
58017;SDS011;43810;50.860;19.226;2022-10-22T00:52:54;11.02;;;7.18;;
58017;SDS011;43810;50.860;19.226;2022-10-22T00:55:22;10.88;;;6.45;;
58017;SDS011;43810;50.860;19.226;2022-10-22T00:57:49;13.00;;;6.97;;
58017;SDS011;43810;50.860;19.226;2022-10-22T01:00:18;15.75;;;6.93;;
58017;SDS011;43810;50.860;19.226;2022-10-22T01:02:45;11.80;;;7.30;;
58017;SDS011;43810;50.860;19.226;2022-10-22T01:05:12;13.77;;;6.95;;
58017;SDS011;43810;50.860;19.226;2022-10-22T01:07:42;12.88;;;7.15;;
58017;SDS011;43810;50.860;19.226;2022-10-22T01:12:55;14.63;;;7.47;;
58017;SDS011;43810;50.860;19.226;2022-10-22T01:16:01;12.32;;;7.18;;
58017;SDS011;43810;50.860;19.226;2022-10-22T01:21:31;15.00;;;7.50;;
58017;SDS011;43810;50.860;19.226;2022-10-22T01:29:42;13.50;;;6.85;;
58017;SDS011;43810;50.860;19.226;2022-10-22T01:32:22;13.07;;;8.38;;
58017;SDS011;43810;50.860;19.226;2022-10-22T01:34:53;15.23;;;8.07;;
58017;SDS011;43810;50.860;19.226;2022-10-22T01:37:24;14.40;;;7.65;;
58017;SDS011;43810;50.860;19.226;2022-10-22T01:39:53;12.88;;;7.43;;
58017;SDS011;43810;50.860;19.226;2022-10-22T01:42:19;14.57;;;7.78;;
58017;SDS011;43810;50.860;19.226;2022-10-22T01:44:45;11.77;;;6.90;;
58017;SDS011;43810;50.860;19.226;2022-10-22T01:55:53;13.85;;;7.15;;
58017;SDS011;43810;50.860;19.226;2022-10-22T02:04:00;12.07;;;7.22;;
58017;SDS011;43810;50.860;19.226;2022-10-22T02:06:28;15.30;;;7.97;;
58017;SDS011;43810;50.860;19.226;2022-10-22T02:08:56;15.25;;;7.05;;
58017;SDS011;43810;50.860;19.226;2022-10-22T02:11:23;12.32;;;6.78;;
58017;SDS011;43810;50.860;19.226;2022-10-22T02:13:50;11.40;;;7.07;;
58017;SDS011;43810;50.860;19.226;2022-10-22T02:16:24;10.93;;;6.70;;
58017;SDS011;43810;50.860;19.226;2022-10-22T02:18:57;13.52;;;7.28;;
58017;SDS011;43810;50.860;19.226;2022-10-22T02:21:26;15.25;;;7.65;;
58017;SDS011;43810;50.860;19.226;2022-10-22T02:23:52;13.60;;;7.90;;
58017;SDS011;43810;50.860;19.226;2022-10-22T02:26:20;17.00;;;8.07;;
58017;SDS011;43810;50.860;19.226;2022-10-22T02:31:27;12.55;;;7.85;;
58017;SDS011;43810;50.860;19.226;2022-10-22T02:33:56;15.93;;;8.00;;
58017;SDS011;43810;50.860;19.226;2022-10-22T02:36:25;14.57;;;8.10;;
58017;SDS011;43810;50.860;19.226;2022-10-22T02:38:52;16.60;;;8.68;;
58017;SDS011;43810;50.860;19.226;2022-10-22T02:41:19;16.25;;;8.23;;
58017;SDS011;43810;50.860;19.226;2022-10-22T02:43:49;13.43;;;8.45;;
58017;SDS011;43810;50.860;19.226;2022-10-22T02:46:18;13.52;;;7.80;;
58017;SDS011;43810;50.860;19.226;2022-10-22T02:48:43;14.25;;;8.40;;
58017;SDS011;43810;50.860;19.226;2022-10-22T02:51:09;15.02;;;8.32;;
58017;SDS011;43810;50.860;19.226;2022-10-22T02:53:35;12.93;;;8.00;;
58017;SDS011;43810;50.860;19.226;2022-10-22T02:56:01;15.25;;;7.88;;
58017;SDS011;43810;50.860;19.226;2022-10-22T02:58:27;15.25;;;8.05;;
58017;SDS011;43810;50.860;19.226;2022-10-22T03:00:53;13.95;;;8.13;;
58017;SDS011;43810;50.860;19.226;2022-10-22T03:03:18;13.18;;;7.57;;
58017;SDS011;43810;50.860;19.226;2022-10-22T03:05:44;15.80;;;7.53;;
58017;SDS011;43810;50.860;19.226;2022-10-22T03:08:10;16.75;;;8.32;;
58017;SDS011;43810;50.860;19.226;2022-10-22T03:10:36;18.48;;;8.13;;
58017;SDS011;43810;50.860;19.226;2022-10-22T03:13:01;15.85;;;8.25;;
58017;SDS011;43810;50.860;19.226;2022-10-22T03:15:27;13.35;;;7.63;;
58017;SDS011;43810;50.860;19.226;2022-10-22T03:17:53;13.52;;;7.95;;
58017;SDS011;43810;50.860;19.226;2022-10-22T03:20:19;12.85;;;7.38;;
58017;SDS011;43810;50.860;19.226;2022-10-22T03:22:44;13.50;;;7.63;;
58017;SDS011;43810;50.860;19.226;2022-10-22T03:25:12;17.85;;;8.57;;
58017;SDS011;43810;50.860;19.226;2022-10-22T03:27:43;13.40;;;8.10;;
58017;SDS011;43810;50.860;19.226;2022-10-22T03:30:10;13.38;;;8.07;;
58017;SDS011;43810;50.860;19.226;2022-10-22T03:32:36;15.25;;;8.35;;
58017;SDS011;43810;50.860;19.226;2022-10-22T03:35:02;14.82;;;7.97;;
58017;SDS011;43810;50.860;19.226;2022-10-22T03:37:28;15.70;;;8.95;;
58017;SDS011;43810;50.860;19.226;2022-10-22T03:39:54;13.13;;;8.25;;
58017;SDS011;43810;50.860;19.226;2022-10-22T03:42:20;21.27;;;8.52;;
58017;SDS011;43810;50.860;19.226;2022-10-22T03:44:46;12.95;;;7.28;;
58017;SDS011;43810;50.860;19.226;2022-10-22T03:47:12;15.45;;;8.98;;
58017;SDS011;43810;50.860;19.226;2022-10-22T03:49:38;14.73;;;8.38;;
58017;SDS011;43810;50.860;19.226;2022-10-22T03:52:04;16.80;;;8.57;;
58017;SDS011;43810;50.860;19.226;2022-10-22T03:54:32;14.23;;;8.10;;
58017;SDS011;43810;50.860;19.226;2022-10-22T03:56:57;16.30;;;7.68;;
58017;SDS011;43810;50.860;19.226;2022-10-22T03:59:23;17.55;;;8.93;;
58017;SDS011;43810;50.860;19.226;2022-10-22T04:01:49;15.70;;;8.40;;
58017;SDS011;43810;50.860;19.226;2022-10-22T04:04:15;14.65;;;8.25;;
58017;SDS011;43810;50.860;19.226;2022-10-22T04:06:41;15.32;;;8.35;;
58017;SDS011;43810;50.860;19.226;2022-10-22T04:09:06;15.35;;;9.13;;
58017;SDS011;43810;50.860;19.226;2022-10-22T04:11:32;13.02;;;8.38;;
58017;SDS011;43810;50.860;19.226;2022-10-22T04:13:58;14.77;;;8.38;;
58017;SDS011;43810;50.860;19.226;2022-10-22T04:16:23;14.85;;;7.78;;
58017;SDS011;43810;50.860;19.226;2022-10-22T04:18:50;14.95;;;8.38;;
58017;SDS011;43810;50.860;19.226;2022-10-22T04:21:16;23.85;;;9.15;;
58017;SDS011;43810;50.860;19.226;2022-10-22T04:23:47;15.93;;;8.10;;
58017;SDS011;43810;50.860;19.226;2022-10-22T04:26:15;15.68;;;7.95;;
58017;SDS011;43810;50.860;19.226;2022-10-22T04:28:43;16.45;;;7.65;;
58017;SDS011;43810;50.860;19.226;2022-10-22T04:31:11;12.15;;;7.40;;
58017;SDS011;43810;50.860;19.226;2022-10-22T04:33:38;15.52;;;7.93;;
58017;SDS011;43810;50.860;19.226;2022-10-22T04:36:05;16.17;;;8.52;;
58017;SDS011;43810;50.860;19.226;2022-10-22T04:38:36;19.10;;;9.85;;
58017;SDS011;43810;50.860;19.226;2022-10-22T04:43:39;22.05;;;9.82;;
58017;SDS011;43810;50.860;19.226;2022-10-22T04:46:05;20.75;;;9.85;;
58017;SDS011;43810;50.860;19.226;2022-10-22T04:48:37;17.70;;;10.68;;
58017;SDS011;43810;50.860;19.226;2022-10-22T04:51:04;20.00;;;9.30;;
58017;SDS011;43810;50.860;19.226;2022-10-22T04:53:32;17.10;;;9.38;;
58017;SDS011;43810;50.860;19.226;2022-10-22T04:58:58;26.30;;;11.35;;
58017;SDS011;43810;50.860;19.226;2022-10-22T05:01:29;24.67;;;11.65;;
58017;SDS011;43810;50.860;19.226;2022-10-22T05:03:58;27.13;;;12.23;;
58017;SDS011;43810;50.860;19.226;2022-10-22T05:06:25;24.50;;;11.32;;
58017;SDS011;43810;50.860;19.226;2022-10-22T05:08:53;27.95;;;11.40;;
58017;SDS011;43810;50.860;19.226;2022-10-22T05:11:22;23.38;;;11.15;;
58017;SDS011;43810;50.860;19.226;2022-10-22T05:13:50;24.73;;;11.13;;
58017;SDS011;43810;50.860;19.226;2022-10-22T05:16:16;23.23;;;10.90;;
58017;SDS011;43810;50.860;19.226;2022-10-22T05:18:43;22.33;;;10.95;;
58017;SDS011;43810;50.860;19.226;2022-10-22T05:21:10;20.75;;;10.77;;
58017;SDS011;43810;50.860;19.226;2022-10-22T05:23:37;24.92;;;9.85;;
58017;SDS011;43810;50.860;19.226;2022-10-22T05:26:04;19.80;;;9.63;;
58017;SDS011;43810;50.860;19.226;2022-10-22T05:28:32;21.08;;;10.90;;
58017;SDS011;43810;50.860;19.226;2022-10-22T05:30:58;17.92;;;9.85;;
58017;SDS011;43810;50.860;19.226;2022-10-22T05:33:29;23.33;;;10.63;;
58017;SDS011;43810;50.860;19.226;2022-10-22T05:35:56;24.35;;;10.55;;
58017;SDS011;43810;50.860;19.226;2022-10-22T05:38:23;21.65;;;10.13;;
58017;SDS011;43810;50.860;19.226;2022-10-22T05:40:59;22.92;;;9.95;;
58017;SDS011;43810;50.860;19.226;2022-10-22T05:43:27;26.77;;;10.85;;
58017;SDS011;43810;50.860;19.226;2022-10-22T05:45:53;22.77;;;11.02;;
58017;SDS011;43810;50.860;19.226;2022-10-22T05:48:19;21.77;;;10.40;;
58017;SDS011;43810;50.860;19.226;2022-10-22T05:50:45;18.42;;;10.63;;
58017;SDS011;43810;50.860;19.226;2022-10-22T05:53:15;22.23;;;11.27;;
58017;SDS011;43810;50.860;19.226;2022-10-22T05:55:42;22.35;;;10.43;;
58017;SDS011;43810;50.860;19.226;2022-10-22T05:58:09;24.67;;;11.90;;
58017;SDS011;43810;50.860;19.226;2022-10-22T06:00:36;21.67;;;10.43;;
58017;SDS011;43810;50.860;19.226;2022-10-22T06:03:03;26.80;;;10.00;;
58017;SDS011;43810;50.860;19.226;2022-10-22T06:05:29;18.55;;;9.55;;
58017;SDS011;43810;50.860;19.226;2022-10-22T06:07:54;23.30;;;10.65;;
58017;SDS011;43810;50.860;19.226;2022-10-22T06:10:21;21.52;;;9.95;;
58017;SDS011;43810;50.860;19.226;2022-10-22T06:12:48;22.15;;;10.38;;
58017;SDS011;43810;50.860;19.226;2022-10-22T06:15:15;20.80;;;10.30;;
58017;SDS011;43810;50.860;19.226;2022-10-22T06:17:43;17.48;;;9.10;;
58017;SDS011;43810;50.860;19.226;2022-10-22T06:20:09;19.33;;;9.45;;
58017;SDS011;43810;50.860;19.226;2022-10-22T06:22:36;18.17;;;8.88;;
58017;SDS011;43810;50.860;19.226;2022-10-22T06:25:02;21.45;;;8.60;;
58017;SDS011;43810;50.860;19.226;2022-10-22T06:27:29;20.52;;;8.95;;
58017;SDS011;43810;50.860;19.226;2022-10-22T06:29:54;18.75;;;9.18;;
58017;SDS011;43810;50.860;19.226;2022-10-22T06:32:20;15.75;;;8.35;;
58017;SDS011;43810;50.860;19.226;2022-10-22T06:34:46;16.63;;;8.85;;
58017;SDS011;43810;50.860;19.226;2022-10-22T06:37:12;15.10;;;8.02;;
58017;SDS011;43810;50.860;19.226;2022-10-22T06:39:39;13.95;;;8.63;;
58017;SDS011;43810;50.860;19.226;2022-10-22T06:42:05;19.30;;;9.27;;
58017;SDS011;43810;50.860;19.226;2022-10-22T06:44:31;14.48;;;9.60;;
58017;SDS011;43810;50.860;19.226;2022-10-22T06:46:57;15.90;;;8.73;;
58017;SDS011;43810;50.860;19.226;2022-10-22T06:49:22;13.68;;;8.68;;
58017;SDS011;43810;50.860;19.226;2022-10-22T06:51:49;15.65;;;9.35;;
58017;SDS011;43810;50.860;19.226;2022-10-22T06:54:16;17.35;;;9.07;;
58017;SDS011;43810;50.860;19.226;2022-10-22T06:56:42;15.15;;;8.77;;
58017;SDS011;43810;50.860;19.226;2022-10-22T06:59:07;17.13;;;9.45;;
58017;SDS011;43810;50.860;19.226;2022-10-22T07:01:33;14.65;;;9.13;;
58017;SDS011;43810;50.860;19.226;2022-10-22T07:04:00;16.30;;;9.38;;
58017;SDS011;43810;50.860;19.226;2022-10-22T07:06:27;17.42;;;8.85;;
58017;SDS011;43810;50.860;19.226;2022-10-22T07:08:54;14.32;;;8.63;;
58017;SDS011;43810;50.860;19.226;2022-10-22T07:11:22;15.15;;;8.65;;
58017;SDS011;43810;50.860;19.226;2022-10-22T07:13:50;15.02;;;7.53;;
58017;SDS011;43810;50.860;19.226;2022-10-22T07:16:18;15.77;;;8.15;;
58017;SDS011;43810;50.860;19.226;2022-10-22T07:18:44;15.18;;;8.18;;
58017;SDS011;43810;50.860;19.226;2022-10-22T07:21:11;15.65;;;8.38;;
58017;SDS011;43810;50.860;19.226;2022-10-22T07:23:38;15.27;;;8.90;;
58017;SDS011;43810;50.860;19.226;2022-10-22T07:26:04;15.98;;;9.23;;
58017;SDS011;43810;50.860;19.226;2022-10-22T07:28:32;15.35;;;8.25;;
58017;SDS011;43810;50.860;19.226;2022-10-22T07:30:58;12.65;;;8.10;;
58017;SDS011;43810;50.860;19.226;2022-10-22T07:33:24;17.50;;;8.95;;
58017;SDS011;43810;50.860;19.226;2022-10-22T07:35:55;15.13;;;8.27;;
58017;SDS011;43810;50.860;19.226;2022-10-22T07:38:25;18.55;;;7.90;;
58017;SDS011;43810;50.860;19.226;2022-10-22T07:40:52;15.75;;;7.78;;
58017;SDS011;43810;50.860;19.226;2022-10-22T07:43:18;18.17;;;8.40;;
58017;SDS011;43810;50.860;19.226;2022-10-22T07:45:44;13.75;;;7.65;;
58017;SDS011;43810;50.860;19.226;2022-10-22T07:48:09;15.10;;;7.30;;
58017;SDS011;43810;50.860;19.226;2022-10-22T07:50:35;13.13;;;7.38;;
58017;SDS011;43810;50.860;19.226;2022-10-22T07:53:01;15.98;;;8.02;;
58017;SDS011;43810;50.860;19.226;2022-10-22T07:55:27;18.17;;;7.60;;
58017;SDS011;43810;50.860;19.226;2022-10-22T07:57:53;15.25;;;7.97;;
58017;SDS011;43810;50.860;19.226;2022-10-22T08:00:19;12.98;;;7.88;;
58017;SDS011;43810;50.860;19.226;2022-10-22T08:02:45;18.05;;;8.20;;
58017;SDS011;43810;50.860;19.226;2022-10-22T08:05:11;12.52;;;7.43;;
58017;SDS011;43810;50.860;19.226;2022-10-22T08:07:37;15.40;;;7.82;;
58017;SDS011;43810;50.860;19.226;2022-10-22T08:10:04;13.55;;;8.25;;
58017;SDS011;43810;50.860;19.226;2022-10-22T08:12:31;15.15;;;8.05;;
58017;SDS011;43810;50.860;19.226;2022-10-22T08:14:57;12.70;;;7.72;;
58017;SDS011;43810;50.860;19.226;2022-10-22T08:17:23;16.63;;;8.68;;
58017;SDS011;43810;50.860;19.226;2022-10-22T08:19:48;16.38;;;8.18;;
58017;SDS011;43810;50.860;19.226;2022-10-22T08:22:14;15.52;;;8.35;;
58017;SDS011;43810;50.860;19.226;2022-10-22T08:24:40;16.77;;;8.05;;
58017;SDS011;43810;50.860;19.226;2022-10-22T08:27:05;15.68;;;7.68;;
58017;SDS011;43810;50.860;19.226;2022-10-22T08:29:31;14.60;;;8.98;;
58017;SDS011;43810;50.860;19.226;2022-10-22T08:31:57;15.68;;;8.80;;
58017;SDS011;43810;50.860;19.226;2022-10-22T08:34:23;21.13;;;9.30;;
58017;SDS011;43810;50.860;19.226;2022-10-22T08:36:48;17.55;;;9.65;;
58017;SDS011;43810;50.860;19.226;2022-10-22T08:39:14;17.55;;;9.50;;
58017;SDS011;43810;50.860;19.226;2022-10-22T08:41:43;14.73;;;8.32;;
58017;SDS011;43810;50.860;19.226;2022-10-22T08:50:16;14.88;;;7.60;;
58017;SDS011;43810;50.860;19.226;2022-10-22T08:52:48;13.55;;;8.10;;
58017;SDS011;43810;50.860;19.226;2022-10-22T08:55:19;15.13;;;8.38;;
58017;SDS011;43810;50.860;19.226;2022-10-22T09:00:43;17.13;;;9.32;;
58017;SDS011;43810;50.860;19.226;2022-10-22T09:08:35;15.88;;;8.57;;
58017;SDS011;43810;50.860;19.226;2022-10-22T09:11:46;13.50;;;8.45;;
58017;SDS011;43810;50.860;19.226;2022-10-22T09:13:55;19.45;;;8.23;;
58017;SDS011;43810;50.860;19.226;2022-10-22T09:24:38;17.73;;;7.38;;
58017;SDS011;43810;50.860;19.226;2022-10-22T09:27:13;12.05;;;7.40;;
58017;SDS011;43810;50.860;19.226;2022-10-22T09:29:44;16.80;;;8.07;;
58017;SDS011;43810;50.860;19.226;2022-10-22T09:32:12;13.40;;;8.10;;
58017;SDS011;43810;50.860;19.226;2022-10-22T09:34:39;16.15;;;7.68;;
58017;SDS011;43810;50.860;19.226;2022-10-22T09:37:06;18.13;;;8.40;;
58017;SDS011;43810;50.860;19.226;2022-10-22T09:39:37;15.48;;;8.60;;
58017;SDS011;43810;50.860;19.226;2022-10-22T09:42:06;15.48;;;8.73;;
58017;SDS011;43810;50.860;19.226;2022-10-22T09:44:33;17.60;;;8.10;;
58017;SDS011;43810;50.860;19.226;2022-10-22T09:47:05;18.33;;;7.85;;
58017;SDS011;43810;50.860;19.226;2022-10-22T09:49:32;21.63;;;8.57;;
58017;SDS011;43810;50.860;19.226;2022-10-22T09:52:00;15.35;;;8.50;;
58017;SDS011;43810;50.860;19.226;2022-10-22T09:59:37;16.33;;;9.43;;
58017;SDS011;43810;50.860;19.226;2022-10-22T10:02:10;18.65;;;8.50;;
58017;SDS011;43810;50.860;19.226;2022-10-22T10:04:43;14.43;;;8.55;;
58017;SDS011;43810;50.860;19.226;2022-10-22T10:07:19;26.08;;;10.40;;
58017;SDS011;43810;50.860;19.226;2022-10-22T10:09:45;14.60;;;8.73;;
58017;SDS011;43810;50.860;19.226;2022-10-22T10:12:20;17.00;;;9.32;;
58017;SDS011;43810;50.860;19.226;2022-10-22T10:23:18;16.27;;;8.68;;
58017;SDS011;43810;50.860;19.226;2022-10-22T10:28:46;14.35;;;8.30;;
58017;SDS011;43810;50.860;19.226;2022-10-22T10:31:59;13.95;;;7.72;;
58017;SDS011;43810;50.860;19.226;2022-10-22T10:34:38;15.32;;;7.60;;
58017;SDS011;43810;50.860;19.226;2022-10-22T10:37:14;15.05;;;8.50;;
58017;SDS011;43810;50.860;19.226;2022-10-22T10:42:19;12.50;;;8.20;;
58017;SDS011;43810;50.860;19.226;2022-10-22T10:55:53;16.58;;;9.55;;
58017;SDS011;43810;50.860;19.226;2022-10-22T11:07:17;16.77;;;8.75;;
58017;SDS011;43810;50.860;19.226;2022-10-22T11:09:52;20.95;;;9.65;;
58017;SDS011;43810;50.860;19.226;2022-10-22T11:12:38;23.00;;;10.25;;
58017;SDS011;43810;50.860;19.226;2022-10-22T11:15:31;15.20;;;8.80;;
58017;SDS011;43810;50.860;19.226;2022-10-22T11:18:11;17.75;;;9.45;;
58017;SDS011;43810;50.860;19.226;2022-10-22T11:23:32;18.90;;;9.90;;
58017;SDS011;43810;50.860;19.226;2022-10-22T11:26:35;15.93;;;9.20;;
58017;SDS011;43810;50.860;19.226;2022-10-22T11:29:12;18.23;;;10.20;;
58017;SDS011;43810;50.860;19.226;2022-10-22T11:31:41;19.58;;;10.00;;
58017;SDS011;43810;50.860;19.226;2022-10-22T11:34:17;18.10;;;9.57;;
58017;SDS011;43810;50.860;19.226;2022-10-22T11:36:46;19.60;;;10.07;;
58017;SDS011;43810;50.860;19.226;2022-10-22T11:41:58;19.88;;;9.93;;
58017;SDS011;43810;50.860;19.226;2022-10-22T11:44:26;17.02;;;9.82;;
58017;SDS011;43810;50.860;19.226;2022-10-22T11:47:40;21.20;;;10.13;;
58017;SDS011;43810;50.860;19.226;2022-10-22T11:49:53;18.52;;;9.60;;
58017;SDS011;43810;50.860;19.226;2022-10-22T11:52:24;21.67;;;10.13;;
58017;SDS011;43810;50.860;19.226;2022-10-22T11:55:02;16.98;;;9.93;;
58017;SDS011;43810;50.860;19.226;2022-10-22T11:57:48;17.88;;;9.55;;
58017;SDS011;43810;50.860;19.226;2022-10-22T12:03:14;19.63;;;10.90;;
58017;SDS011;43810;50.860;19.226;2022-10-22T12:05:43;18.55;;;10.80;;
58017;SDS011;43810;50.860;19.226;2022-10-22T12:08:22;18.80;;;10.73;;
58017;SDS011;43810;50.860;19.226;2022-10-22T12:10:54;22.50;;;11.07;;
58017;SDS011;43810;50.860;19.226;2022-10-22T12:13:26;20.50;;;10.93;;
58017;SDS011;43810;50.860;19.226;2022-10-22T12:15:58;22.08;;;10.82;;
58017;SDS011;43810;50.860;19.226;2022-10-22T12:18:34;18.33;;;10.38;;
58017;SDS011;43810;50.860;19.226;2022-10-22T12:21:07;20.25;;;10.88;;
58017;SDS011;43810;50.860;19.226;2022-10-22T12:23:37;19.25;;;11.48;;
58017;SDS011;43810;50.860;19.226;2022-10-22T12:26:03;23.58;;;11.98;;
58017;SDS011;43810;50.860;19.226;2022-10-22T12:28:36;17.80;;;10.98;;
58017;SDS011;43810;50.860;19.226;2022-10-22T12:31:05;22.02;;;12.10;;
58017;SDS011;43810;50.860;19.226;2022-10-22T12:33:31;22.42;;;12.20;;
58017;SDS011;43810;50.860;19.226;2022-10-22T12:35:57;21.15;;;12.15;;
58017;SDS011;43810;50.860;19.226;2022-10-22T12:38:28;19.48;;;10.90;;
58017;SDS011;43810;50.860;19.226;2022-10-22T12:40:55;25.38;;;13.18;;
58017;SDS011;43810;50.860;19.226;2022-10-22T12:43:25;26.20;;;12.25;;
58017;SDS011;43810;50.860;19.226;2022-10-22T12:45:54;23.67;;;12.23;;
58017;SDS011;43810;50.860;19.226;2022-10-22T12:48:23;21.98;;;12.00;;
58017;SDS011;43810;50.860;19.226;2022-10-22T12:50:56;24.27;;;12.15;;
58017;SDS011;43810;50.860;19.226;2022-10-22T12:53:27;21.23;;;11.73;;
58017;SDS011;43810;50.860;19.226;2022-10-22T12:55:56;20.50;;;11.48;;
58017;SDS011;43810;50.860;19.226;2022-10-22T12:58:28;20.08;;;11.05;;
58017;SDS011;43810;50.860;19.226;2022-10-22T13:01:02;21.95;;;11.25;;
58017;SDS011;43810;50.860;19.226;2022-10-22T13:03:32;24.30;;;12.18;;
58017;SDS011;43810;50.860;19.226;2022-10-22T13:06:20;22.77;;;12.60;;
58017;SDS011;43810;50.860;19.226;2022-10-22T13:12:01;24.75;;;13.23;;
58017;SDS011;43810;50.860;19.226;2022-10-22T13:24:49;22.50;;;13.18;;
58017;SDS011;43810;50.860;19.226;2022-10-22T13:27:15;26.30;;;14.65;;
58017;SDS011;43810;50.860;19.226;2022-10-22T13:29:41;24.58;;;13.05;;
58017;SDS011;43810;50.860;19.226;2022-10-22T13:35:04;26.38;;;14.77;;
58017;SDS011;43810;50.860;19.226;2022-10-22T13:37:31;31.30;;;16.60;;
58017;SDS011;43810;50.860;19.226;2022-10-22T13:39:58;30.55;;;15.02;;
58017;SDS011;43810;50.860;19.226;2022-10-22T13:42:24;24.75;;;13.48;;
58017;SDS011;43810;50.860;19.226;2022-10-22T13:44:50;24.95;;;13.32;;
58017;SDS011;43810;50.860;19.226;2022-10-22T13:47:28;25.20;;;13.73;;
58017;SDS011;43810;50.860;19.226;2022-10-22T13:49:54;22.10;;;12.27;;
58017;SDS011;43810;50.860;19.226;2022-10-22T13:55:11;24.65;;;14.35;;
58017;SDS011;43810;50.860;19.226;2022-10-22T13:57:43;24.33;;;15.15;;
58017;SDS011;43810;50.860;19.226;2022-10-22T14:00:13;26.25;;;14.43;;
58017;SDS011;43810;50.860;19.226;2022-10-22T14:02:41;26.58;;;15.55;;
58017;SDS011;43810;50.860;19.226;2022-10-22T14:05:07;28.70;;;15.88;;
58017;SDS011;43810;50.860;19.226;2022-10-22T14:07:35;45.63;;;19.30;;
58017;SDS011;43810;50.860;19.226;2022-10-22T14:10:02;42.97;;;19.33;;
58017;SDS011;43810;50.860;19.226;2022-10-22T14:12:37;38.70;;;17.88;;
58017;SDS011;43810;50.860;19.226;2022-10-22T14:15:03;41.97;;;18.02;;
58017;SDS011;43810;50.860;19.226;2022-10-22T14:17:29;47.75;;;21.50;;
58017;SDS011;43810;50.860;19.226;2022-10-22T14:19:55;42.35;;;20.13;;
58017;SDS011;43810;50.860;19.226;2022-10-22T14:22:20;52.67;;;22.30;;
58017;SDS011;43810;50.860;19.226;2022-10-22T14:24:50;58.42;;;24.75;;
58017;SDS011;43810;50.860;19.226;2022-10-22T14:27:16;48.33;;;21.35;;
58017;SDS011;43810;50.860;19.226;2022-10-22T14:29:42;33.63;;;17.23;;
58017;SDS011;43810;50.860;19.226;2022-10-22T14:32:11;32.22;;;16.52;;
58017;SDS011;43810;50.860;19.226;2022-10-22T14:34:39;28.67;;;16.33;;
58017;SDS011;43810;50.860;19.226;2022-10-22T14:37:10;31.30;;;17.52;;
58017;SDS011;43810;50.860;19.226;2022-10-22T14:39:40;31.23;;;16.92;;
58017;SDS011;43810;50.860;19.226;2022-10-22T14:42:10;30.83;;;15.73;;
58017;SDS011;43810;50.860;19.226;2022-10-22T14:44:36;30.13;;;15.25;;
58017;SDS011;43810;50.860;19.226;2022-10-22T14:47:02;27.05;;;15.75;;
58017;SDS011;43810;50.860;19.226;2022-10-22T14:49:27;31.73;;;17.08;;
58017;SDS011;43810;50.860;19.226;2022-10-22T14:51:53;31.33;;;16.58;;
58017;SDS011;43810;50.860;19.226;2022-10-22T14:54:19;36.20;;;18.80;;
58017;SDS011;43810;50.860;19.226;2022-10-22T14:56:45;35.70;;;17.83;;
58017;SDS011;43810;50.860;19.226;2022-10-22T14:59:12;33.80;;;17.70;;
58017;SDS011;43810;50.860;19.226;2022-10-22T15:01:37;53.45;;;23.27;;
58017;SDS011;43810;50.860;19.226;2022-10-22T15:04:03;43.15;;;23.30;;
58017;SDS011;43810;50.860;19.226;2022-10-22T15:06:30;47.35;;;23.60;;
58017;SDS011;43810;50.860;19.226;2022-10-22T15:08:55;46.97;;;24.65;;
58017;SDS011;43810;50.860;19.226;2022-10-22T15:11:21;41.85;;;24.15;;
58017;SDS011;43810;50.860;19.226;2022-10-22T15:13:47;46.03;;;25.73;;
58017;SDS011;43810;50.860;19.226;2022-10-22T15:16:14;58.55;;;27.55;;
58017;SDS011;43810;50.860;19.226;2022-10-22T15:18:40;60.13;;;27.73;;
58017;SDS011;43810;50.860;19.226;2022-10-22T15:21:10;55.70;;;29.60;;
58017;SDS011;43810;50.860;19.226;2022-10-22T15:23:39;39.72;;;22.88;;
58017;SDS011;43810;50.860;19.226;2022-10-22T15:26:08;35.63;;;21.67;;
58017;SDS011;43810;50.860;19.226;2022-10-22T15:28:36;37.03;;;19.50;;
58017;SDS011;43810;50.860;19.226;2022-10-22T15:31:03;44.08;;;24.58;;
58017;SDS011;43810;50.860;19.226;2022-10-22T15:33:29;244.98;;;121.28;;
58017;SDS011;43810;50.860;19.226;2022-10-22T15:35:55;95.47;;;48.90;;
58017;SDS011;43810;50.860;19.226;2022-10-22T15:38:22;57.58;;;31.92;;
58017;SDS011;43810;50.860;19.226;2022-10-22T15:40:59;65.68;;;34.30;;
58017;SDS011;43810;50.860;19.226;2022-10-22T15:43:35;59.33;;;28.33;;
58017;SDS011;43810;50.860;19.226;2022-10-22T15:46:15;51.10;;;25.73;;
58017;SDS011;43810;50.860;19.226;2022-10-22T15:48:42;54.97;;;27.48;;
58017;SDS011;43810;50.860;19.226;2022-10-22T15:51:15;59.28;;;29.70;;
58017;SDS011;43810;50.860;19.226;2022-10-22T15:53:43;57.63;;;29.13;;
58017;SDS011;43810;50.860;19.226;2022-10-22T15:56:09;55.75;;;25.83;;
58017;SDS011;43810;50.860;19.226;2022-10-22T15:58:36;53.72;;;27.58;;
58017;SDS011;43810;50.860;19.226;2022-10-22T16:01:06;70.60;;;34.33;;
58017;SDS011;43810;50.860;19.226;2022-10-22T16:03:33;71.78;;;36.05;;
58017;SDS011;43810;50.860;19.226;2022-10-22T16:06:00;55.72;;;29.98;;
58017;SDS011;43810;50.860;19.226;2022-10-22T16:08:26;55.50;;;27.60;;
58017;SDS011;43810;50.860;19.226;2022-10-22T16:10:52;51.60;;;25.20;;
58017;SDS011;43810;50.860;19.226;2022-10-22T16:13:18;63.17;;;30.63;;
58017;SDS011;43810;50.860;19.226;2022-10-22T16:15:46;54.50;;;27.30;;
58017;SDS011;43810;50.860;19.226;2022-10-22T16:18:12;56.53;;;27.35;;
58017;SDS011;43810;50.860;19.226;2022-10-22T16:20:38;53.90;;;27.27;;
58017;SDS011;43810;50.860;19.226;2022-10-22T16:23:04;56.08;;;27.92;;
58017;SDS011;43810;50.860;19.226;2022-10-22T16:25:36;56.58;;;29.92;;
58017;SDS011;43810;50.860;19.226;2022-10-22T16:28:02;57.20;;;27.90;;
58017;SDS011;43810;50.860;19.226;2022-10-22T16:30:28;45.80;;;25.73;;
58017;SDS011;43810;50.860;19.226;2022-10-22T16:32:58;46.42;;;25.98;;
58017;SDS011;43810;50.860;19.226;2022-10-22T16:35:24;48.22;;;25.50;;